Terminal Aerodrome Forecast
Issued by NWS

Home | Current Version | Previous Version | Text Only | Print | Product List | Glossary On
Versions: 1 2 3 4 5 6 7 8 9 10 11 12 13 14 15 16 17 18 19 20 21 22 23 24 25 26 27 28 29 30 31 32 33 34 35 36 37 38 39 40 41 42 43 44 45
877
FTUS44 KHGX 220706 AAA
TAFCXO
TAF AMD
KCXO 220706Z 2207/2306 00000KT 4SM BR SKC
      TEMPO 2207/2209 3/4SM BR VV006
     FM220900 00000KT 4SM BR BKN015
      TEMPO 2209/2213 1/2SM FG VV006
     FM221500 15007KT P6SM SCT015 BKN035
     FM221900 14008KT P6SM VCSH BKN035
     FM230200 11004KT P6SM SCT250=

USA.gov is the U.S. government's official web portal to all federal, state and local government web resources and services.